sensor_id;sensor_type;location;lat;lon;timestamp;temperature;humidity
20845;DHT22;10583;49.084;8.646;2024-03-23T00:55:59;9.30;99.90
20845;DHT22;10583;49.084;8.646;2024-03-23T00:58:25;9.20;99.90
20845;DHT22;10583;49.084;8.646;2024-03-23T01:00:51;9.10;99.90
20845;DHT22;10583;49.084;8.646;2024-03-23T01:03:17;9.10;99.90
20845;DHT22;10583;49.084;8.646;2024-03-23T01:05:44;9.10;99.90
20845;DHT22;10583;49.084;8.646;2024-03-23T01:08:11;9.10;99.90
20845;DHT22;10583;49.084;8.646;2024-03-23T01:10:38;9.10;99.90
20845;DHT22;10583;49.084;8.646;2024-03-23T01:13:04;9.10;99.90
20845;DHT22;10583;49.084;8.646;2024-03-23T01:15:30;9.10;99.90
20845;DHT22;10583;49.084;8.646;2024-03-23T01:17:56;9.10;99.90
20845;DHT22;10583;49.084;8.646;2024-03-23T01:20:23;9.10;99.90
20845;DHT22;10583;49.084;8.646;2024-03-23T01:22:49;9.10;99.90
20845;DHT22;10583;49.084;8.646;2024-03-23T01:25:17;9.10;99.90
20845;DHT22;10583;49.084;8.646;2024-03-23T01:27:42;9.10;99.90
20845;DHT22;10583;49.084;8.646;2024-03-23T01:30:09;9.00;99.90
20845;DHT22;10583;49.084;8.646;2024-03-23T01:32:35;8.90;99.90
20845;DHT22;10583;49.084;8.646;2024-03-23T01:35:02;8.90;99.90
20845;DHT22;10583;49.084;8.646;2024-03-23T01:37:29;8.80;99.90
20845;DHT22;10583;49.084;8.646;2024-03-23T01:39:56;8.80;99.90
20845;DHT22;10583;49.084;8.646;2024-03-23T01:42:23;8.90;99.90
20845;DHT22;10583;49.084;8.646;2024-03-23T01:44:50;8.90;99.90
20845;DHT22;10583;49.084;8.646;2024-03-23T01:47:16;8.90;99.90
20845;DHT22;10583;49.084;8.646;2024-03-23T01:49:43;8.90;99.90
20845;DHT22;10583;49.084;8.646;2024-03-23T01:52:09;9.00;99.90
20845;DHT22;10583;49.084;8.646;2024-03-23T01:54:36;9.00;99.90
20845;DHT22;10583;49.084;8.646;2024-03-23T01:57:02;9.10;99.90
20845;DHT22;10583;49.084;8.646;2024-03-23T01:59:31;9.10;99.90
20845;DHT22;10583;49.084;8.646;2024-03-23T02:01:57;9.20;99.90
20845;DHT22;10583;49.084;8.646;2024-03-23T02:04:23;9.20;99.90
20845;DHT22;10583;49.084;8.646;2024-03-23T02:06:49;9.40;99.90
20845;DHT22;10583;49.084;8.646;2024-03-23T02:09:16;9.60;99.90
20845;DHT22;10583;49.084;8.646;2024-03-23T02:11:41;9.90;99.90
20845;DHT22;10583;49.084;8.646;2024-03-23T02:14:08;10.30;99.90
20845;DHT22;10583;49.084;8.646;2024-03-23T02:16:35;10.50;99.90
20845;DHT22;10583;49.084;8.646;2024-03-23T02:19:02;10.80;99.90
20845;DHT22;10583;49.084;8.646;2024-03-23T02:21:28;11.00;99.90
20845;DHT22;10583;49.084;8.646;2024-03-23T02:23:58;11.30;99.90
20845;DHT22;10583;49.084;8.646;2024-03-23T02:26:24;11.30;99.90
20845;DHT22;10583;49.084;8.646;2024-03-23T02:28:51;11.40;99.90
20845;DHT22;10583;49.084;8.646;2024-03-23T02:31:16;11.50;99.90
20845;DHT22;10583;49.084;8.646;2024-03-23T02:33:43;11.60;99.90
20845;DHT22;10583;49.084;8.646;2024-03-23T02:36:09;11.60;99.90
20845;DHT22;10583;49.084;8.646;2024-03-23T02:38:35;11.60;99.90
20845;DHT22;10583;49.084;8.646;2024-03-23T02:41:04;11.80;99.90
20845;DHT22;10583;49.084;8.646;2024-03-23T02:43:31;12.10;99.90
20845;DHT22;10583;49.084;8.646;2024-03-23T02:45:57;12.20;99.90
20845;DHT22;10583;49.084;8.646;2024-03-23T02:48:23;12.30;99.90
20845;DHT22;10583;49.084;8.646;2024-03-23T02:50:49;12.40;99.90
20845;DHT22;10583;49.084;8.646;2024-03-23T02:53:16;12.30;99.90
20845;DHT22;10583;49.084;8.646;2024-03-23T02:55:42;12.30;99.90
20845;DHT22;10583;49.084;8.646;2024-03-23T02:58:10;12.30;99.90
20845;DHT22;10583;49.084;8.646;2024-03-23T03:00:36;12.30;99.90
20845;DHT22;10583;49.084;8.646;2024-03-23T03:03:03;12.40;99.90
20845;DHT22;10583;49.084;8.646;2024-03-23T03:05:29;12.40;99.90
20845;DHT22;10583;49.084;8.646;2024-03-23T03:07:56;12.50;99.90
20845;DHT22;10583;49.084;8.646;2024-03-23T03:10:22;12.50;99.90
20845;DHT22;10583;49.084;8.646;2024-03-23T03:12:49;12.60;99.90
20845;DHT22;10583;49.084;8.646;2024-03-23T03:15:16;12.50;99.90
20845;DHT22;10583;49.084;8.646;2024-03-23T03:17:42;12.50;99.90
20845;DHT22;10583;49.084;8.646;2024-03-23T03:20:09;12.50;99.90
20845;DHT22;10583;49.084;8.646;2024-03-23T03:22:39;12.50;99.90
20845;DHT22;10583;49.084;8.646;2024-03-23T03:25:05;12.50;99.90
20845;DHT22;10583;49.084;8.646;2024-03-23T03:27:32;12.40;99.90
20845;DHT22;10583;49.084;8.646;2024-03-23T03:29:58;12.40;99.90
20845;DHT22;10583;49.084;8.646;2024-03-23T03:32:28;12.40;99.90
20845;DHT22;10583;49.084;8.646;2024-03-23T03:34:54;12.40;99.90
20845;DHT22;10583;49.084;8.646;2024-03-23T03:37:21;12.40;99.90
20845;DHT22;10583;49.084;8.646;2024-03-23T03:39:46;12.30;99.90
20845;DHT22;10583;49.084;8.646;2024-03-23T03:42:13;12.40;99.90
20845;DHT22;10583;49.084;8.646;2024-03-23T03:44:39;12.40;99.90
20845;DHT22;10583;49.084;8.646;2024-03-23T03:47:06;12.40;99.90
20845;DHT22;10583;49.084;8.646;2024-03-23T03:49:33;12.40;99.90
20845;DHT22;10583;49.084;8.646;2024-03-23T03:52:00;12.40;99.90
20845;DHT22;10583;49.084;8.646;2024-03-23T03:54:27;12.40;99.90
20845;DHT22;10583;49.084;8.646;2024-03-23T03:56:54;12.30;99.90
20845;DHT22;10583;49.084;8.646;2024-03-23T03:59:19;12.40;99.90
20845;DHT22;10583;49.084;8.646;2024-03-23T04:01:46;12.40;99.90
20845;DHT22;10583;49.084;8.646;2024-03-23T04:04:12;12.30;99.90
20845;DHT22;10583;49.084;8.646;2024-03-23T04:06:43;12.30;99.90
20845;DHT22;10583;49.084;8.646;2024-03-23T04:09:09;12.30;99.90
20845;DHT22;10583;49.084;8.646;2024-03-23T04:11:36;12.30;99.90
20845;DHT22;10583;49.084;8.646;2024-03-23T04:14:01;12.30;99.90
20845;DHT22;10583;49.084;8.646;2024-03-23T04:16:29;12.40;99.90
20845;DHT22;10583;49.084;8.646;2024-03-23T04:18:55;12.30;99.90
20845;DHT22;10583;49.084;8.646;2024-03-23T04:21:22;12.30;99.90
20845;DHT22;10583;49.084;8.646;2024-03-23T04:23:49;12.30;99.90
20845;DHT22;10583;49.084;8.646;2024-03-23T04:26:16;12.30;99.90
20845;DHT22;10583;49.084;8.646;2024-03-23T04:28:42;12.30;99.90
20845;DHT22;10583;49.084;8.646;2024-03-23T04:31:09;12.30;99.90
20845;DHT22;10583;49.084;8.646;2024-03-23T04:33:35;12.20;99.90
20845;DHT22;10583;49.084;8.646;2024-03-23T04:36:01;12.20;99.90
20845;DHT22;10583;49.084;8.646;2024-03-23T04:38:28;12.20;99.90
20845;DHT22;10583;49.084;8.646;2024-03-23T04:40:56;12.20;99.90
20845;DHT22;10583;49.084;8.646;2024-03-23T04:43:23;12.10;99.90
20845;DHT22;10583;49.084;8.646;2024-03-23T04:45:50;12.10;99.90
20845;DHT22;10583;49.084;8.646;2024-03-23T04:48:19;12.10;99.90
20845;DHT22;10583;49.084;8.646;2024-03-23T04:50:45;12.10;99.90
20845;DHT22;10583;49.084;8.646;2024-03-23T04:53:12;12.00;99.90
20845;DHT22;10583;49.084;8.646;2024-03-23T04:55:39;12.00;99.90
20845;DHT22;10583;49.084;8.646;2024-03-23T04:58:07;12.00;99.90
20845;DHT22;10583;49.084;8.646;2024-03-23T05:00:32;11.90;99.90
20845;DHT22;10583;49.084;8.646;2024-03-23T05:02:59;11.80;99.90
20845;DHT22;10583;49.084;8.646;2024-03-23T05:05:25;11.80;99.90
20845;DHT22;10583;49.084;8.646;2024-03-23T05:07:52;11.80;99.90
20845;DHT22;10583;49.084;8.646;2024-03-23T05:10:17;11.70;99.90
20845;DHT22;10583;49.084;8.646;2024-03-23T05:12:44;11.60;99.90
20845;DHT22;10583;49.084;8.646;2024-03-23T05:15:12;11.50;99.90
20845;DHT22;10583;49.084;8.646;2024-03-23T05:17:39;11.40;99.90
20845;DHT22;10583;49.084;8.646;2024-03-23T05:20:05;11.40;99.90
20845;DHT22;10583;49.084;8.646;2024-03-23T05:22:35;11.40;99.90
20845;DHT22;10583;49.084;8.646;2024-03-23T05:25:01;11.40;99.90
20845;DHT22;10583;49.084;8.646;2024-03-23T05:27:30;11.30;99.90
20845;DHT22;10583;49.084;8.646;2024-03-23T05:29:55;11.30;99.90
20845;DHT22;10583;49.084;8.646;2024-03-23T05:32:23;11.30;99.90
20845;DHT22;10583;49.084;8.646;2024-03-23T05:34:49;11.20;99.90
20845;DHT22;10583;49.084;8.646;2024-03-23T05:37:21;11.10;99.90
20845;DHT22;10583;49.084;8.646;2024-03-23T05:39:46;11.00;99.90
20845;DHT22;10583;49.084;8.646;2024-03-23T05:42:15;11.00;99.90
20845;DHT22;10583;49.084;8.646;2024-03-23T05:44:42;10.90;99.90
20845;DHT22;10583;49.084;8.646;2024-03-23T05:47:09;10.80;99.90
20845;DHT22;10583;49.084;8.646;2024-03-23T05:49:36;10.80;99.90
20845;DHT22;10583;49.084;8.646;2024-03-23T05:52:04;10.70;99.90
20845;DHT22;10583;49.084;8.646;2024-03-23T05:54:29;10.70;99.90
20845;DHT22;10583;49.084;8.646;2024-03-23T05:56:56;10.70;99.90
20845;DHT22;10583;49.084;8.646;2024-03-23T05:59:22;10.60;99.90
20845;DHT22;10583;49.084;8.646;2024-03-23T06:01:49;10.60;99.90
20845;DHT22;10583;49.084;8.646;2024-03-23T06:04:14;10.50;99.90
20845;DHT22;10583;49.084;8.646;2024-03-23T06:06:42;10.50;99.90
20845;DHT22;10583;49.084;8.646;2024-03-23T06:09:08;10.40;99.90
20845;DHT22;10583;49.084;8.646;2024-03-23T06:11:35;10.40;99.90
20845;DHT22;10583;49.084;8.646;2024-03-23T06:14:00;10.40;99.90
20845;DHT22;10583;49.084;8.646;2024-03-23T06:16:27;10.40;99.90
20845;DHT22;10583;49.084;8.646;2024-03-23T06:18:53;10.40;99.90
20845;DHT22;10583;49.084;8.646;2024-03-23T06:21:20;10.30;99.90
20845;DHT22;10583;49.084;8.646;2024-03-23T06:23:48;10.20;99.90
20845;DHT22;10583;49.084;8.646;2024-03-23T06:26:18;10.20;99.90
20845;DHT22;10583;49.084;8.646;2024-03-23T06:28:43;10.20;99.90
20845;DHT22;10583;49.084;8.646;2024-03-23T06:31:10;10.20;99.90
20845;DHT22;10583;49.084;8.646;2024-03-23T06:33:36;10.10;99.90
20845;DHT22;10583;49.084;8.646;2024-03-23T06:36:03;10.10;99.90
20845;DHT22;10583;49.084;8.646;2024-03-23T06:38:29;10.10;99.90
20845;DHT22;10583;49.084;8.646;2024-03-23T06:40:57;10.10;99.90
20845;DHT22;10583;49.084;8.646;2024-03-23T06:43:23;10.00;99.90
20845;DHT22;10583;49.084;8.646;2024-03-23T06:45:52;10.00;99.90
20845;DHT22;10583;49.084;8.646;2024-03-23T06:48:18;10.00;99.90
20845;DHT22;10583;49.084;8.646;2024-03-23T06:50:45;9.90;99.90
20845;DHT22;10583;49.084;8.646;2024-03-23T06:53:11;9.90;99.90
20845;DHT22;10583;49.084;8.646;2024-03-23T06:55:38;9.80;99.90
20845;DHT22;10583;49.084;8.646;2024-03-23T06:58:05;9.80;99.90
20845;DHT22;10583;49.084;8.646;2024-03-23T07:00:32;9.80;99.90
20845;DHT22;10583;49.084;8.646;2024-03-23T07:02:59;9.80;99.90
20845;DHT22;10583;49.084;8.646;2024-03-23T07:05:25;9.70;99.90
20845;DHT22;10583;49.084;8.646;2024-03-23T07:07:51;9.70;99.90
20845;DHT22;10583;49.084;8.646;2024-03-23T07:10:18;9.70;99.90
20845;DHT22;10583;49.084;8.646;2024-03-23T07:12:43;9.70;99.90
20845;DHT22;10583;49.084;8.646;2024-03-23T07:15:11;9.70;99.90
20845;DHT22;10583;49.084;8.646;2024-03-23T07:17:37;9.70;99.90
20845;DHT22;10583;49.084;8.646;2024-03-23T07:20:05;9.60;99.90
20845;DHT22;10583;49.084;8.646;2024-03-23T07:22:30;9.60;99.90
20845;DHT22;10583;49.084;8.646;2024-03-23T07:24:59;9.50;99.90
20845;DHT22;10583;49.084;8.646;2024-03-23T07:27:25;9.30;99.90
20845;DHT22;10583;49.084;8.646;2024-03-23T07:29:51;9.20;99.90
20845;DHT22;10583;49.084;8.646;2024-03-23T07:32:19;9.00;99.90
20845;DHT22;10583;49.084;8.646;2024-03-23T07:34:45;8.90;99.90
20845;DHT22;10583;49.084;8.646;2024-03-23T07:37:11;8.80;99.90
20845;DHT22;10583;49.084;8.646;2024-03-23T07:39:39;8.70;99.90
20845;DHT22;10583;49.084;8.646;2024-03-23T07:42:05;8.70;99.90
20845;DHT22;10583;49.084;8.646;2024-03-23T07:44:32;8.60;99.90
20845;DHT22;10583;49.084;8.646;2024-03-23T07:47:00;8.50;99.90
20845;DHT22;10583;49.084;8.646;2024-03-23T07:49:28;8.60;99.90
20845;DHT22;10583;49.084;8.646;2024-03-23T07:51:54;8.70;99.90
20845;DHT22;10583;49.084;8.646;2024-03-23T07:54:22;9.00;99.90
20845;DHT22;10583;49.084;8.646;2024-03-23T07:56:47;9.20;99.90
20845;DHT22;10583;49.084;8.646;2024-03-23T07:59:14;9.20;99.90
20845;DHT22;10583;49.084;8.646;2024-03-23T08:01:40;9.20;99.90
20845;DHT22;10583;49.084;8.646;2024-03-23T08:04:07;9.20;99.90
20845;DHT22;10583;49.084;8.646;2024-03-23T08:06:34;9.20;99.90
20845;DHT22;10583;49.084;8.646;2024-03-23T08:09:01;9.30;99.90
20845;DHT22;10583;49.084;8.646;2024-03-23T08:11:27;9.50;99.90
20845;DHT22;10583;49.084;8.646;2024-03-23T08:13:54;9.70;99.90
20845;DHT22;10583;49.084;8.646;2024-03-23T08:16:20;9.90;99.90
20845;DHT22;10583;49.084;8.646;2024-03-23T08:18:48;9.90;99.90
20845;DHT22;10583;49.084;8.646;2024-03-23T08:21:14;9.80;99.90
20845;DHT22;10583;49.084;8.646;2024-03-23T08:23:42;9.90;99.90
20845;DHT22;10583;49.084;8.646;2024-03-23T08:26:09;10.00;99.90
20845;DHT22;10583;49.084;8.646;2024-03-23T08:28:37;9.70;99.90
20845;DHT22;10583;49.084;8.646;2024-03-23T08:31:05;9.50;99.90
20845;DHT22;10583;49.084;8.646;2024-03-23T08:33:32;9.50;99.90
20845;DHT22;10583;49.084;8.646;2024-03-23T08:35:59;9.30;99.90
20845;DHT22;10583;49.084;8.646;2024-03-23T08:38:27;9.30;99.90
20845;DHT22;10583;49.084;8.646;2024-03-23T08:40:58;9.50;99.90
20845;DHT22;10583;49.084;8.646;2024-03-23T08:43:26;10.30;99.90
20845;DHT22;10583;49.084;8.646;2024-03-23T08:45:52;11.10;99.90
20845;DHT22;10583;49.084;8.646;2024-03-23T08:48:19;11.70;99.90
20845;DHT22;10583;49.084;8.646;2024-03-23T08:50:46;11.60;99.90
20845;DHT22;10583;49.084;8.646;2024-03-23T08:53:13;11.10;99.90
20845;DHT22;10583;49.084;8.646;2024-03-23T08:55:39;10.70;99.90
20845;DHT22;10583;49.084;8.646;2024-03-23T08:58:07;10.20;99.90
20845;DHT22;10583;49.084;8.646;2024-03-23T09:00:34;10.10;99.90
20845;DHT22;10583;49.084;8.646;2024-03-23T09:03:00;10.30;99.90
20845;DHT22;10583;49.084;8.646;2024-03-23T09:05:28;10.50;99.90
20845;DHT22;10583;49.084;8.646;2024-03-23T09:08:00;10.90;99.90
20845;DHT22;10583;49.084;8.646;2024-03-23T09:10:26;11.70;99.90
20845;DHT22;10583;49.084;8.646;2024-03-23T09:12:53;12.30;99.90
20845;DHT22;10583;49.084;8.646;2024-03-23T09:15:20;12.90;99.90
20845;DHT22;10583;49.084;8.646;2024-03-23T09:17:47;13.10;99.90
20845;DHT22;10583;49.084;8.646;2024-03-23T09:20:13;13.00;99.90
20845;DHT22;10583;49.084;8.646;2024-03-23T09:22:39;13.00;99.90
20845;DHT22;10583;49.084;8.646;2024-03-23T09:25:06;13.20;99.90
20845;DHT22;10583;49.084;8.646;2024-03-23T09:27:32;13.10;99.90
20845;DHT22;10583;49.084;8.646;2024-03-23T09:29:58;13.50;99.90
20845;DHT22;10583;49.084;8.646;2024-03-23T09:32:26;13.40;99.90
20845;DHT22;10583;49.084;8.646;2024-03-23T09:38:14;13.20;99.90
20845;DHT22;10583;49.084;8.646;2024-03-23T09:40:41;12.40;99.90
20845;DHT22;10583;49.084;8.646;2024-03-23T09:43:07;11.60;99.90
20845;DHT22;10583;49.084;8.646;2024-03-23T09:45:38;11.40;99.90
20845;DHT22;10583;49.084;8.646;2024-03-23T09:48:07;11.30;99.90
20845;DHT22;10583;49.084;8.646;2024-03-23T09:50:36;11.20;99.90
20845;DHT22;10583;49.084;8.646;2024-03-23T09:53:02;11.10;99.90
20845;DHT22;10583;49.084;8.646;2024-03-23T09:55:28;10.90;99.90
20845;DHT22;10583;49.084;8.646;2024-03-23T09:57:54;10.70;99.90
20845;DHT22;10583;49.084;8.646;2024-03-23T10:00:21;10.50;99.90
20845;DHT22;10583;49.084;8.646;2024-03-23T10:02:47;10.40;99.90
20845;DHT22;10583;49.084;8.646;2024-03-23T10:05:22;10.40;99.90
20845;DHT22;10583;49.084;8.646;2024-03-23T10:07:48;10.30;99.90
20845;DHT22;10583;49.084;8.646;2024-03-23T10:10:16;10.30;99.90
20845;DHT22;10583;49.084;8.646;2024-03-23T10:12:45;10.20;99.90
20845;DHT22;10583;49.084;8.646;2024-03-23T10:15:18;10.00;99.90
20845;DHT22;10583;49.084;8.646;2024-03-23T10:17:44;9.90;99.90
20845;DHT22;10583;49.084;8.646;2024-03-23T10:20:11;9.80;99.90
20845;DHT22;10583;49.084;8.646;2024-03-23T10:22:38;9.80;99.90
20845;DHT22;10583;49.084;8.646;2024-03-23T10:25:09;9.90;99.90
20845;DHT22;10583;49.084;8.646;2024-03-23T10:27:36;9.90;99.90
20845;DHT22;10583;49.084;8.646;2024-03-23T10:30:10;9.90;99.90
20845;DHT22;10583;49.084;8.646;2024-03-23T10:32:37;9.90;99.90
20845;DHT22;10583;49.084;8.646;2024-03-23T10:35:17;9.90;99.90
20845;DHT22;10583;49.084;8.646;2024-03-23T10:37:45;10.00;99.90
20845;DHT22;10583;49.084;8.646;2024-03-23T10:40:13;10.00;99.90
20845;DHT22;10583;49.084;8.646;2024-03-23T10:42:39;10.20;99.90
20845;DHT22;10583;49.084;8.646;2024-03-23T10:45:07;10.50;99.90
20845;DHT22;10583;49.084;8.646;2024-03-23T10:47:35;10.50;99.90
20845;DHT22;10583;49.084;8.646;2024-03-23T10:50:02;10.60;99.90
20845;DHT22;10583;49.084;8.646;2024-03-23T10:52:28;10.40;99.90
20845;DHT22;10583;49.084;8.646;2024-03-23T10:54:57;10.20;99.90
20845;DHT22;10583;49.084;8.646;2024-03-23T10:57:28;10.40;99.90
20845;DHT22;10583;49.084;8.646;2024-03-23T10:59:56;11.00;99.90
20845;DHT22;10583;49.084;8.646;2024-03-23T11:02:23;11.50;99.90
20845;DHT22;10583;49.084;8.646;2024-03-23T11:04:52;12.30;99.90
20845;DHT22;10583;49.084;8.646;2024-03-23T11:07:29;12.30;99.90
20845;DHT22;10583;49.084;8.646;2024-03-23T11:09:57;12.30;99.90
20845;DHT22;10583;49.084;8.646;2024-03-23T11:12:30;13.00;99.90
20845;DHT22;10583;49.084;8.646;2024-03-23T11:15:01;13.40;99.90
20845;DHT22;10583;49.084;8.646;2024-03-23T11:17:28;13.50;99.90
20845;DHT22;10583;49.084;8.646;2024-03-23T11:19:56;13.60;99.90
20845;DHT22;10583;49.084;8.646;2024-03-23T11:22:39;13.60;99.90
20845;DHT22;10583;49.084;8.646;2024-03-23T11:25:17;13.20;99.90
20845;DHT22;10583;49.084;8.646;2024-03-23T11:27:44;13.20;99.90
20845;DHT22;10583;49.084;8.646;2024-03-23T11:30:13;13.40;99.90
20845;DHT22;10583;49.084;8.646;2024-03-23T11:32:39;12.80;99.90
20845;DHT22;10583;49.084;8.646;2024-03-23T11:35:06;12.70;99.90
20845;DHT22;10583;49.084;8.646;2024-03-23T11:37:32;12.10;99.90
20845;DHT22;10583;49.084;8.646;2024-03-23T11:39:59;11.50;99.90
20845;DHT22;10583;49.084;8.646;2024-03-23T11:42:28;12.30;99.90
20845;DHT22;10583;49.084;8.646;2024-03-23T11:44:55;12.70;99.90
20845;DHT22;10583;49.084;8.646;2024-03-23T11:47:20;13.20;99.90
20845;DHT22;10583;49.084;8.646;2024-03-23T11:49:48;13.30;99.90
20845;DHT22;10583;49.084;8.646;2024-03-23T11:52:16;12.80;99.90
20845;DHT22;10583;49.084;8.646;2024-03-23T11:54:43;13.00;99.90
20845;DHT22;10583;49.084;8.646;2024-03-23T11:57:09;13.50;99.90
20845;DHT22;10583;49.084;8.646;2024-03-23T11:59:38;13.90;99.90
20845;DHT22;10583;49.084;8.646;2024-03-23T12:02:09;13.80;99.90
20845;DHT22;10583;49.084;8.646;2024-03-23T12:04:37;13.40;99.90
20845;DHT22;10583;49.084;8.646;2024-03-23T12:07:10;13.70;99.90
20845;DHT22;10583;49.084;8.646;2024-03-23T12:09:38;14.40;99.90
20845;DHT22;10583;49.084;8.646;2024-03-23T12:12:11;14.50;99.90
20845;DHT22;10583;49.084;8.646;2024-03-23T12:14:42;14.00;99.90
20845;DHT22;10583;49.084;8.646;2024-03-23T12:17:12;12.80;99.90
20845;DHT22;10583;49.084;8.646;2024-03-23T12:19:39;13.00;99.90
20845;DHT22;10583;49.084;8.646;2024-03-23T12:22:06;13.60;99.90
20845;DHT22;10583;49.084;8.646;2024-03-23T12:24:34;13.90;99.90
20845;DHT22;10583;49.084;8.646;2024-03-23T12:27:01;14.50;99.90
20845;DHT22;10583;49.084;8.646;2024-03-23T12:29:29;14.70;99.90
20845;DHT22;10583;49.084;8.646;2024-03-23T12:31:59;14.50;99.90
20845;DHT22;10583;49.084;8.646;2024-03-23T12:34:26;14.70;99.90
20845;DHT22;10583;49.084;8.646;2024-03-23T12:36:51;14.20;99.90
20845;DHT22;10583;49.084;8.646;2024-03-23T12:39:18;14.40;99.90
20845;DHT22;10583;49.084;8.646;2024-03-23T12:41:44;14.70;99.90
20845;DHT22;10583;49.084;8.646;2024-03-23T12:44:11;15.40;99.90
20845;DHT22;10583;49.084;8.646;2024-03-23T12:46:37;15.10;99.90
20845;DHT22;10583;49.084;8.646;2024-03-23T12:49:05;14.90;99.90
20845;DHT22;10583;49.084;8.646;2024-03-23T12:51:31;15.30;99.90
20845;DHT22;10583;49.084;8.646;2024-03-23T12:53:58;15.10;97.10
20845;DHT22;10583;49.084;8.646;2024-03-23T12:56:24;14.00;98.10
20845;DHT22;10583;49.084;8.646;2024-03-23T13:02:12;13.40;99.90
20845;DHT22;10583;49.084;8.646;2024-03-23T13:04:40;13.90;99.90
20845;DHT22;10583;49.084;8.646;2024-03-23T13:07:06;14.20;99.80
20845;DHT22;10583;49.084;8.646;2024-03-23T13:09:32;13.70;99.90
20845;DHT22;10583;49.084;8.646;2024-03-23T13:11:58;13.00;99.90
20845;DHT22;10583;49.084;8.646;2024-03-23T13:14:25;12.60;99.90
20845;DHT22;10583;49.084;8.646;2024-03-23T13:16:51;11.30;99.90
20845;DHT22;10583;49.084;8.646;2024-03-23T13:19:17;10.40;99.90
20845;DHT22;10583;49.084;8.646;2024-03-23T13:21:44;9.60;99.90
20845;DHT22;10583;49.084;8.646;2024-03-23T13:24:11;9.10;99.90
20845;DHT22;10583;49.084;8.646;2024-03-23T13:26:37;9.00;99.90
20845;DHT22;10583;49.084;8.646;2024-03-23T13:29:03;9.20;99.90
20845;DHT22;10583;49.084;8.646;2024-03-23T13:31:29;9.80;99.90
20845;DHT22;10583;49.084;8.646;2024-03-23T13:33:56;10.50;99.90
20845;DHT22;10583;49.084;8.646;2024-03-23T13:36:21;10.80;99.90
20845;DHT22;10583;49.084;8.646;2024-03-23T13:38:50;11.10;99.90
20845;DHT22;10583;49.084;8.646;2024-03-23T13:41:16;11.00;99.90
20845;DHT22;10583;49.084;8.646;2024-03-23T13:43:43;10.80;99.90
20845;DHT22;10583;49.084;8.646;2024-03-23T13:46:09;11.10;99.90
20845;DHT22;10583;49.084;8.646;2024-03-23T13:48:35;11.10;99.90
20845;DHT22;10583;49.084;8.646;2024-03-23T13:51:03;11.00;99.90
20845;DHT22;10583;49.084;8.646;2024-03-23T13:53:30;10.80;99.90
20845;DHT22;10583;49.084;8.646;2024-03-23T13:55:57;10.60;99.90
20845;DHT22;10583;49.084;8.646;2024-03-23T13:58:24;10.40;99.90
20845;DHT22;10583;49.084;8.646;2024-03-23T14:00:51;10.30;99.90
20845;DHT22;10583;49.084;8.646;2024-03-23T14:03:17;10.50;99.90
20845;DHT22;10583;49.084;8.646;2024-03-23T14:05:44;10.80;99.90
20845;DHT22;10583;49.084;8.646;2024-03-23T14:08:12;11.00;99.90
20845;DHT22;10583;49.084;8.646;2024-03-23T14:10:41;11.30;99.90
20845;DHT22;10583;49.084;8.646;2024-03-23T14:13:09;11.20;99.90
20845;DHT22;10583;49.084;8.646;2024-03-23T14:15:35;10.90;99.90
20845;DHT22;10583;49.084;8.646;2024-03-23T14:18:03;10.90;99.90
20845;DHT22;10583;49.084;8.646;2024-03-23T14:20:29;11.00;99.90
20845;DHT22;10583;49.084;8.646;2024-03-23T14:22:56;10.90;99.90
20845;DHT22;10583;49.084;8.646;2024-03-23T14:25:21;10.40;99.90
20845;DHT22;10583;49.084;8.646;2024-03-23T14:27:52;9.70;99.90
20845;DHT22;10583;49.084;8.646;2024-03-23T14:30:19;9.60;99.90
20845;DHT22;10583;49.084;8.646;2024-03-23T14:32:46;9.70;99.90
20845;DHT22;10583;49.084;8.646;2024-03-23T14:35:12;9.80;99.90
20845;DHT22;10583;49.084;8.646;2024-03-23T14:37:39;9.70;99.90
20845;DHT22;10583;49.084;8.646;2024-03-23T14:40:06;9.40;99.90
20845;DHT22;10583;49.084;8.646;2024-03-23T14:42:33;9.30;99.90
20845;DHT22;10583;49.084;8.646;2024-03-23T14:44:58;9.20;99.90
20845;DHT22;10583;49.084;8.646;2024-03-23T14:47:26;9.30;99.90
20845;DHT22;10583;49.084;8.646;2024-03-23T14:49:52;9.40;99.90
20845;DHT22;10583;49.084;8.646;2024-03-23T14:52:19;9.40;99.90
20845;DHT22;10583;49.084;8.646;2024-03-23T14:54:45;9.60;99.90
20845;DHT22;10583;49.084;8.646;2024-03-23T14:57:12;9.80;99.90
20845;DHT22;10583;49.084;8.646;2024-03-23T14:59:38;10.00;99.90
20845;DHT22;10583;49.084;8.646;2024-03-23T15:02:06;10.10;99.90
20845;DHT22;10583;49.084;8.646;2024-03-23T15:04:33;10.30;99.90
20845;DHT22;10583;49.084;8.646;2024-03-23T15:07:00;10.30;99.90
20845;DHT22;10583;49.084;8.646;2024-03-23T15:09:26;10.20;99.90
20845;DHT22;10583;49.084;8.646;2024-03-23T15:11:52;10.10;99.90
20845;DHT22;10583;49.084;8.646;2024-03-23T15:14:20;10.10;99.90
20845;DHT22;10583;49.084;8.646;2024-03-23T15:16:47;10.10;99.90
20845;DHT22;10583;49.084;8.646;2024-03-23T15:19:14;10.00;99.90
20845;DHT22;10583;49.084;8.646;2024-03-23T15:21:44;9.90;99.90
20845;DHT22;10583;49.084;8.646;2024-03-23T15:24:09;10.00;99.90
20845;DHT22;10583;49.084;8.646;2024-03-23T15:26:36;10.10;99.90
20845;DHT22;10583;49.084;8.646;2024-03-23T15:29:02;10.10;99.90
20845;DHT22;10583;49.084;8.646;2024-03-23T15:31:37;10.10;99.90
20845;DHT22;10583;49.084;8.646;2024-03-23T15:34:03;10.00;99.90
20845;DHT22;10583;49.084;8.646;2024-03-23T15:36:35;10.00;99.90
20845;DHT22;10583;49.084;8.646;2024-03-23T15:39:02;9.90;99.90
20845;DHT22;10583;49.084;8.646;2024-03-23T15:41:29;10.00;99.90
20845;DHT22;10583;49.084;8.646;2024-03-23T15:43:56;10.00;99.90
20845;DHT22;10583;49.084;8.646;2024-03-23T15:46:24;10.00;99.90
20845;DHT22;10583;49.084;8.646;2024-03-23T15:48:50;9.70;99.90
20845;DHT22;10583;49.084;8.646;2024-03-23T15:51:17;9.50;99.90
20845;DHT22;10583;49.084;8.646;2024-03-23T15:53:43;9.30;99.90
20845;DHT22;10583;49.084;8.646;2024-03-23T15:56:11;9.10;99.90
20845;DHT22;10583;49.084;8.646;2024-03-23T15:58:38;8.80;99.90
20845;DHT22;10583;49.084;8.646;2024-03-23T16:01:06;8.70;99.90
20845;DHT22;10583;49.084;8.646;2024-03-23T16:03:34;8.60;99.90
20845;DHT22;10583;49.084;8.646;2024-03-23T16:06:02;8.70;99.90
20845;DHT22;10583;49.084;8.646;2024-03-23T16:08:28;8.60;99.90
20845;DHT22;10583;49.084;8.646;2024-03-23T16:10:59;8.60;99.90
20845;DHT22;10583;49.084;8.646;2024-03-23T16:13:27;8.50;99.90
20845;DHT22;10583;49.084;8.646;2024-03-23T16:15:57;8.30;99.90
20845;DHT22;10583;49.084;8.646;2024-03-23T16:18:23;8.10;99.90
20845;DHT22;10583;49.084;8.646;2024-03-23T16:20:54;8.10;99.90
20845;DHT22;10583;49.084;8.646;2024-03-23T16:23:20;8.00;99.90
20845;DHT22;10583;49.084;8.646;2024-03-23T16:25:47;7.40;99.90
20845;DHT22;10583;49.084;8.646;2024-03-23T16:28:24;6.90;99.90
20845;DHT22;10583;49.084;8.646;2024-03-23T16:30:56;6.00;99.90
20845;DHT22;10583;49.084;8.646;2024-03-23T16:33:22;5.20;99.90
20845;DHT22;10583;49.084;8.646;2024-03-23T16:35:59;5.00;99.90